sensor_id;sensor_type;location;lat;lon;timestamp;P1;durP1;ratioP1;P2;durP2;ratioP2
77589;SDS011;66746;51.328;12.332;2023-04-05T00:01:02;8.27;;;7.03;;
77589;SDS011;66746;51.328;12.332;2023-04-05T00:03:28;8.38;;;7.50;;
77589;SDS011;66746;51.328;12.332;2023-04-05T00:05:55;7.60;;;6.18;;
77589;SDS011;66746;51.328;12.332;2023-04-05T00:08:23;6.93;;;6.22;;
77589;SDS011;66746;51.328;12.332;2023-04-05T00:10:49;7.50;;;6.80;;
77589;SDS011;66746;51.328;12.332;2023-04-05T00:13:16;7.45;;;5.20;;
77589;SDS011;66746;51.328;12.332;2023-04-05T00:15:42;8.52;;;4.85;;
77589;SDS011;66746;51.328;12.332;2023-04-05T00:18:08;7.70;;;6.20;;
77589;SDS011;66746;51.328;12.332;2023-04-05T00:20:35;10.25;;;6.35;;
77589;SDS011;66746;51.328;12.332;2023-04-05T00:23:01;8.15;;;7.32;;
77589;SDS011;66746;51.328;12.332;2023-04-05T00:25:29;9.43;;;8.60;;
77589;SDS011;66746;51.328;12.332;2023-04-05T00:27:55;8.23;;;7.03;;
77589;SDS011;66746;51.328;12.332;2023-04-05T00:30:22;8.48;;;5.88;;
77589;SDS011;66746;51.328;12.332;2023-04-05T00:32:49;9.30;;;7.35;;
77589;SDS011;66746;51.328;12.332;2023-04-05T00:35:16;6.88;;;5.60;;
77589;SDS011;66746;51.328;12.332;2023-04-05T00:37:43;7.57;;;6.93;;
77589;SDS011;66746;51.328;12.332;2023-04-05T00:40:09;7.35;;;5.03;;
77589;SDS011;66746;51.328;12.332;2023-04-05T00:42:37;6.53;;;5.10;;
77589;SDS011;66746;51.328;12.332;2023-04-05T00:45:04;8.63;;;7.85;;
77589;SDS011;66746;51.328;12.332;2023-04-05T00:47:31;7.78;;;6.82;;
77589;SDS011;66746;51.328;12.332;2023-04-05T00:49:58;8.27;;;6.57;;
77589;SDS011;66746;51.328;12.332;2023-04-05T00:52:25;8.70;;;6.55;;
77589;SDS011;66746;51.328;12.332;2023-04-05T00:54:52;8.23;;;7.53;;
77589;SDS011;66746;51.328;12.332;2023-04-05T00:57:19;7.20;;;4.82;;
77589;SDS011;66746;51.328;12.332;2023-04-05T00:59:47;9.82;;;7.82;;
77589;SDS011;66746;51.328;12.332;2023-04-05T01:02:15;8.35;;;7.55;;
77589;SDS011;66746;51.328;12.332;2023-04-05T01:04:53;8.02;;;7.22;;
77589;SDS011;66746;51.328;12.332;2023-04-05T01:07:30;6.25;;;5.32;;
77589;SDS011;66746;51.328;12.332;2023-04-05T01:10:03;7.63;;;5.95;;
77589;SDS011;66746;51.328;12.332;2023-04-05T01:12:31;7.35;;;5.70;;
77589;SDS011;66746;51.328;12.332;2023-04-05T01:15:00;8.60;;;7.15;;
77589;SDS011;66746;51.328;12.332;2023-04-05T01:17:30;8.02;;;7.22;;
77589;SDS011;66746;51.328;12.332;2023-04-05T01:19:57;9.48;;;8.38;;
77589;SDS011;66746;51.328;12.332;2023-04-05T01:22:35;11.15;;;8.43;;
77589;SDS011;66746;51.328;12.332;2023-04-05T01:25:21;7.85;;;5.60;;
77589;SDS011;66746;51.328;12.332;2023-04-05T01:28:17;8.68;;;7.53;;
77589;SDS011;66746;51.328;12.332;2023-04-05T01:31:00;10.55;;;6.95;;
77589;SDS011;66746;51.328;12.332;2023-04-05T01:33:34;8.05;;;7.25;;
77589;SDS011;66746;51.328;12.332;2023-04-05T01:36:07;8.50;;;7.70;;
77589;SDS011;66746;51.328;12.332;2023-04-05T01:38:41;11.05;;;8.10;;
77589;SDS011;66746;51.328;12.332;2023-04-05T01:41:11;9.55;;;7.07;;
77589;SDS011;66746;51.328;12.332;2023-04-05T01:43:37;7.80;;;7.05;;
77589;SDS011;66746;51.328;12.332;2023-04-05T01:46:05;6.13;;;5.35;;
77589;SDS011;66746;51.328;12.332;2023-04-05T01:48:32;8.45;;;6.47;;
77589;SDS011;66746;51.328;12.332;2023-04-05T01:50:59;9.02;;;6.93;;
77589;SDS011;66746;51.328;12.332;2023-04-05T01:53:25;11.13;;;7.95;;
77589;SDS011;66746;51.328;12.332;2023-04-05T01:55:52;9.18;;;8.27;;
77589;SDS011;66746;51.328;12.332;2023-04-05T01:58:18;10.55;;;7.80;;
77589;SDS011;66746;51.328;12.332;2023-04-05T02:00:44;9.02;;;8.23;;
77589;SDS011;66746;51.328;12.332;2023-04-05T02:03:12;8.63;;;5.82;;
77589;SDS011;66746;51.328;12.332;2023-04-05T02:05:39;8.45;;;7.65;;
77589;SDS011;66746;51.328;12.332;2023-04-05T02:08:05;8.15;;;6.43;;
77589;SDS011;66746;51.328;12.332;2023-04-05T02:10:32;11.50;;;7.90;;
77589;SDS011;66746;51.328;12.332;2023-04-05T02:12:58;9.52;;;8.70;;
77589;SDS011;66746;51.328;12.332;2023-04-05T02:15:25;9.38;;;7.45;;
77589;SDS011;66746;51.328;12.332;2023-04-05T02:17:51;10.75;;;7.05;;
77589;SDS011;66746;51.328;12.332;2023-04-05T02:20:19;8.40;;;5.97;;
77589;SDS011;66746;51.328;12.332;2023-04-05T02:22:46;11.25;;;9.60;;
77589;SDS011;66746;51.328;12.332;2023-04-05T02:25:14;8.43;;;7.68;;
77589;SDS011;66746;51.328;12.332;2023-04-05T02:27:41;7.97;;;7.13;;
77589;SDS011;66746;51.328;12.332;2023-04-05T02:30:07;10.25;;;7.22;;
77589;SDS011;66746;51.328;12.332;2023-04-05T02:32:34;9.10;;;6.53;;
77589;SDS011;66746;51.328;12.332;2023-04-05T02:35:01;8.90;;;6.82;;
77589;SDS011;66746;51.328;12.332;2023-04-05T02:37:28;9.63;;;7.22;;
77589;SDS011;66746;51.328;12.332;2023-04-05T02:39:55;9.15;;;6.82;;
77589;SDS011;66746;51.328;12.332;2023-04-05T02:42:21;10.52;;;9.63;;
77589;SDS011;66746;51.328;12.332;2023-04-05T02:44:49;9.43;;;7.93;;
77589;SDS011;66746;51.328;12.332;2023-04-05T02:47:16;8.95;;;7.18;;
77589;SDS011;66746;51.328;12.332;2023-04-05T02:49:43;10.77;;;7.35;;
77589;SDS011;66746;51.328;12.332;2023-04-05T02:52:10;8.27;;;6.88;;
77589;SDS011;66746;51.328;12.332;2023-04-05T02:54:38;8.05;;;7.20;;
77589;SDS011;66746;51.328;12.332;2023-04-05T02:57:04;9.20;;;7.47;;
77589;SDS011;66746;51.328;12.332;2023-04-05T03:02:08;12.55;;;7.45;;
77589;SDS011;66746;51.328;12.332;2023-04-05T03:04:35;7.97;;;6.28;;
77589;SDS011;66746;51.328;12.332;2023-04-05T03:07:02;9.95;;;8.10;;
77589;SDS011;66746;51.328;12.332;2023-04-05T03:09:32;8.85;;;7.28;;
77589;SDS011;66746;51.328;12.332;2023-04-05T03:12:05;7.97;;;6.22;;
77589;SDS011;66746;51.328;12.332;2023-04-05T03:14:36;9.57;;;8.38;;
77589;SDS011;66746;51.328;12.332;2023-04-05T03:17:04;9.13;;;8.23;;
77589;SDS011;66746;51.328;12.332;2023-04-05T03:19:36;7.80;;;6.13;;
77589;SDS011;66746;51.328;12.332;2023-04-05T03:22:11;10.32;;;7.13;;
77589;SDS011;66746;51.328;12.332;2023-04-05T03:24:39;10.52;;;9.57;;
77589;SDS011;66746;51.328;12.332;2023-04-05T03:27:08;10.70;;;9.70;;
77589;SDS011;66746;51.328;12.332;2023-04-05T03:29:44;9.52;;;7.05;;
77589;SDS011;66746;51.328;12.332;2023-04-05T03:32:14;8.32;;;7.53;;
77589;SDS011;66746;51.328;12.332;2023-04-05T03:34:47;11.35;;;10.23;;
77589;SDS011;66746;51.328;12.332;2023-04-05T03:37:15;8.07;;;7.00;;
77589;SDS011;66746;51.328;12.332;2023-04-05T03:39:47;14.10;;;8.15;;
77589;SDS011;66746;51.328;12.332;2023-04-05T03:42:16;12.60;;;8.15;;
77589;SDS011;66746;51.328;12.332;2023-04-05T03:44:43;11.05;;;7.38;;
77589;SDS011;66746;51.328;12.332;2023-04-05T03:47:10;12.63;;;9.15;;
77589;SDS011;66746;51.328;12.332;2023-04-05T03:49:38;12.00;;;9.00;;
77589;SDS011;66746;51.328;12.332;2023-04-05T03:52:04;11.15;;;9.68;;
77589;SDS011;66746;51.328;12.332;2023-04-05T03:54:31;13.93;;;9.18;;
77589;SDS011;66746;51.328;12.332;2023-04-05T03:56:59;12.57;;;10.05;;
77589;SDS011;66746;51.328;12.332;2023-04-05T03:59:28;11.55;;;10.35;;
77589;SDS011;66746;51.328;12.332;2023-04-05T04:01:56;10.32;;;9.18;;
77589;SDS011;66746;51.328;12.332;2023-04-05T04:04:23;12.50;;;9.35;;
77589;SDS011;66746;51.328;12.332;2023-04-05T04:06:50;11.70;;;7.63;;
77589;SDS011;66746;51.328;12.332;2023-04-05T04:09:20;8.50;;;6.82;;
77589;SDS011;66746;51.328;12.332;2023-04-05T04:11:46;12.70;;;8.40;;
77589;SDS011;66746;51.328;12.332;2023-04-05T04:14:17;9.50;;;8.50;;
77589;SDS011;66746;51.328;12.332;2023-04-05T04:16:56;11.05;;;10.10;;
77589;SDS011;66746;51.328;12.332;2023-04-05T04:19:36;8.88;;;7.25;;
77589;SDS011;66746;51.328;12.332;2023-04-05T04:22:16;10.48;;;9.20;;
77589;SDS011;66746;51.328;12.332;2023-04-05T04:25:03;12.70;;;9.40;;
77589;SDS011;66746;51.328;12.332;2023-04-05T04:27:49;10.95;;;9.55;;
77589;SDS011;66746;51.328;12.332;2023-04-05T04:30:31;10.25;;;8.43;;
77589;SDS011;66746;51.328;12.332;2023-04-05T04:32:59;10.77;;;7.97;;
77589;SDS011;66746;51.328;12.332;2023-04-05T04:35:32;10.63;;;9.18;;
77589;SDS011;66746;51.328;12.332;2023-04-05T04:38:13;10.65;;;7.68;;
77589;SDS011;66746;51.328;12.332;2023-04-05T04:41:06;12.60;;;9.18;;
77589;SDS011;66746;51.328;12.332;2023-04-05T04:43:58;12.15;;;9.23;;
77589;SDS011;66746;51.328;12.332;2023-04-05T04:46:37;10.18;;;8.80;;
77589;SDS011;66746;51.328;12.332;2023-04-05T04:49:08;10.05;;;7.15;;
77589;SDS011;66746;51.328;12.332;2023-04-05T04:51:36;8.98;;;7.13;;
77589;SDS011;66746;51.328;12.332;2023-04-05T04:54:03;9.98;;;8.98;;
77589;SDS011;66746;51.328;12.332;2023-04-05T04:56:29;12.23;;;7.45;;
77589;SDS011;66746;51.328;12.332;2023-04-05T04:58:57;10.77;;;9.40;;
77589;SDS011;66746;51.328;12.332;2023-04-05T05:01:24;9.93;;;8.93;;
77589;SDS011;66746;51.328;12.332;2023-04-05T05:03:50;11.52;;;10.48;;
77589;SDS011;66746;51.328;12.332;2023-04-05T05:06:28;9.70;;;8.43;;
77589;SDS011;66746;51.328;12.332;2023-04-05T05:08:55;9.85;;;8.07;;
77589;SDS011;66746;51.328;12.332;2023-04-05T05:11:23;10.15;;;8.98;;
77589;SDS011;66746;51.328;12.332;2023-04-05T05:13:49;9.48;;;8.57;;
77589;SDS011;66746;51.328;12.332;2023-04-05T05:16:21;10.82;;;8.80;;
77589;SDS011;66746;51.328;12.332;2023-04-05T05:18:49;11.95;;;9.48;;
77589;SDS011;66746;51.328;12.332;2023-04-05T05:21:16;12.18;;;9.48;;
77589;SDS011;66746;51.328;12.332;2023-04-05T05:23:50;11.70;;;8.25;;
77589;SDS011;66746;51.328;12.332;2023-04-05T05:26:16;13.20;;;8.82;;
77589;SDS011;66746;51.328;12.332;2023-04-05T05:28:42;10.50;;;8.50;;
77589;SDS011;66746;51.328;12.332;2023-04-05T05:31:09;10.23;;;8.75;;
77589;SDS011;66746;51.328;12.332;2023-04-05T05:33:35;9.65;;;7.97;;
77589;SDS011;66746;51.328;12.332;2023-04-05T05:36:02;10.50;;;8.80;;
77589;SDS011;66746;51.328;12.332;2023-04-05T05:38:29;9.80;;;8.45;;
77589;SDS011;66746;51.328;12.332;2023-04-05T05:40:56;11.02;;;8.80;;
77589;SDS011;66746;51.328;12.332;2023-04-05T05:43:23;9.00;;;7.30;;
77589;SDS011;66746;51.328;12.332;2023-04-05T05:45:49;10.60;;;8.68;;
77589;SDS011;66746;51.328;12.332;2023-04-05T05:48:16;10.23;;;8.38;;
77589;SDS011;66746;51.328;12.332;2023-04-05T05:50:43;9.50;;;8.60;;
77589;SDS011;66746;51.328;12.332;2023-04-05T05:53:09;9.93;;;7.68;;
77589;SDS011;66746;51.328;12.332;2023-04-05T05:55:36;10.88;;;8.00;;
77589;SDS011;66746;51.328;12.332;2023-04-05T05:58:03;9.38;;;7.82;;
77589;SDS011;66746;51.328;12.332;2023-04-05T06:00:30;10.15;;;7.63;;
77589;SDS011;66746;51.328;12.332;2023-04-05T06:02:56;10.15;;;8.98;;
77589;SDS011;66746;51.328;12.332;2023-04-05T06:05:23;9.68;;;6.85;;
77589;SDS011;66746;51.328;12.332;2023-04-05T06:07:49;9.48;;;8.57;;
77589;SDS011;66746;51.328;12.332;2023-04-05T06:10:16;8.90;;;7.30;;
77589;SDS011;66746;51.328;12.332;2023-04-05T06:12:42;9.60;;;8.57;;
77589;SDS011;66746;51.328;12.332;2023-04-05T06:15:10;11.73;;;9.57;;
77589;SDS011;66746;51.328;12.332;2023-04-05T06:17:36;8.80;;;7.40;;
77589;SDS011;66746;51.328;12.332;2023-04-05T06:20:03;8.93;;;6.85;;
77589;SDS011;66746;51.328;12.332;2023-04-05T06:22:30;9.13;;;6.40;;
77589;SDS011;66746;51.328;12.332;2023-04-05T06:24:57;9.15;;;8.25;;
77589;SDS011;66746;51.328;12.332;2023-04-05T06:27:23;10.90;;;7.97;;
77589;SDS011;66746;51.328;12.332;2023-04-05T06:29:50;8.35;;;7.55;;
77589;SDS011;66746;51.328;12.332;2023-04-05T06:32:17;9.98;;;7.53;;
77589;SDS011;66746;51.328;12.332;2023-04-05T06:34:44;8.57;;;7.63;;
77589;SDS011;66746;51.328;12.332;2023-04-05T06:37:10;8.15;;;7.13;;
77589;SDS011;66746;51.328;12.332;2023-04-05T06:39:37;8.52;;;7.53;;
77589;SDS011;66746;51.328;12.332;2023-04-05T06:42:03;7.97;;;7.30;;
77589;SDS011;66746;51.328;12.332;2023-04-05T06:44:37;9.40;;;7.43;;
77589;SDS011;66746;51.328;12.332;2023-04-05T06:47:04;8.50;;;6.13;;
77589;SDS011;66746;51.328;12.332;2023-04-05T06:49:31;7.57;;;6.53;;
77589;SDS011;66746;51.328;12.332;2023-04-05T06:51:58;8.68;;;6.85;;
77589;SDS011;66746;51.328;12.332;2023-04-05T06:54:25;13.43;;;7.90;;
77589;SDS011;66746;51.328;12.332;2023-04-05T06:56:51;9.13;;;7.53;;
77589;SDS011;66746;51.328;12.332;2023-04-05T06:59:17;10.95;;;8.23;;
77589;SDS011;66746;51.328;12.332;2023-04-05T07:01:44;8.00;;;7.22;;
77589;SDS011;66746;51.328;12.332;2023-04-05T07:04:11;9.30;;;7.47;;
77589;SDS011;66746;51.328;12.332;2023-04-05T07:06:38;10.13;;;7.20;;
77589;SDS011;66746;51.328;12.332;2023-04-05T07:09:05;8.63;;;7.72;;
77589;SDS011;66746;51.328;12.332;2023-04-05T07:11:31;7.90;;;7.20;;
77589;SDS011;66746;51.328;12.332;2023-04-05T07:13:58;8.35;;;6.80;;
77589;SDS011;66746;51.328;12.332;2023-04-05T07:16:24;8.02;;;6.93;;
77589;SDS011;66746;51.328;12.332;2023-04-05T07:18:51;8.80;;;7.03;;
77589;SDS011;66746;51.328;12.332;2023-04-05T07:21:17;9.57;;;7.35;;
77589;SDS011;66746;51.328;12.332;2023-04-05T07:23:45;8.55;;;7.30;;
77589;SDS011;66746;51.328;12.332;2023-04-05T07:26:11;8.27;;;7.30;;
77589;SDS011;66746;51.328;12.332;2023-04-05T07:28:38;8.38;;;7.63;;
77589;SDS011;66746;51.328;12.332;2023-04-05T07:31:05;7.97;;;7.10;;
77589;SDS011;66746;51.328;12.332;2023-04-05T07:33:32;9.85;;;6.20;;
77589;SDS011;66746;51.328;12.332;2023-04-05T07:35:59;8.20;;;7.43;;
77589;SDS011;66746;51.328;12.332;2023-04-05T07:38:25;8.13;;;6.53;;
77589;SDS011;66746;51.328;12.332;2023-04-05T07:40:53;8.38;;;6.38;;
77589;SDS011;66746;51.328;12.332;2023-04-05T07:43:20;7.55;;;6.00;;
77589;SDS011;66746;51.328;12.332;2023-04-05T07:45:46;8.63;;;7.25;;
77589;SDS011;66746;51.328;12.332;2023-04-05T07:48:13;8.50;;;6.00;;
77589;SDS011;66746;51.328;12.332;2023-04-05T07:50:39;8.30;;;6.57;;
77589;SDS011;66746;51.328;12.332;2023-04-05T07:53:06;7.80;;;6.50;;
77589;SDS011;66746;51.328;12.332;2023-04-05T07:55:33;7.03;;;6.32;;
77589;SDS011;66746;51.328;12.332;2023-04-05T07:58:03;8.32;;;6.72;;
77589;SDS011;66746;51.328;12.332;2023-04-05T08:00:30;7.20;;;6.50;;
77589;SDS011;66746;51.328;12.332;2023-04-05T08:02:57;8.32;;;7.32;;
77589;SDS011;66746;51.328;12.332;2023-04-05T08:05:27;8.05;;;5.45;;
77589;SDS011;66746;51.328;12.332;2023-04-05T08:07:54;7.03;;;4.72;;
77589;SDS011;66746;51.328;12.332;2023-04-05T08:10:20;6.97;;;6.20;;
77589;SDS011;66746;51.328;12.332;2023-04-05T08:12:46;6.10;;;5.07;;
77589;SDS011;66746;51.328;12.332;2023-04-05T08:15:14;7.20;;;6.50;;
77589;SDS011;66746;51.328;12.332;2023-04-05T08:17:41;7.80;;;5.95;;
77589;SDS011;66746;51.328;12.332;2023-04-05T08:20:08;7.88;;;7.00;;
77589;SDS011;66746;51.328;12.332;2023-04-05T08:22:34;6.75;;;5.22;;
77589;SDS011;66746;51.328;12.332;2023-04-05T08:25:01;8.02;;;5.43;;
77589;SDS011;66746;51.328;12.332;2023-04-05T08:27:27;8.60;;;5.32;;
77589;SDS011;66746;51.328;12.332;2023-04-05T08:29:54;7.18;;;6.32;;
77589;SDS011;66746;51.328;12.332;2023-04-05T08:32:22;6.20;;;5.70;;
77589;SDS011;66746;51.328;12.332;2023-04-05T08:34:48;7.43;;;5.43;;
77589;SDS011;66746;51.328;12.332;2023-04-05T08:37:14;8.32;;;6.00;;
77589;SDS011;66746;51.328;12.332;2023-04-05T08:39:41;6.63;;;5.50;;
77589;SDS011;66746;51.328;12.332;2023-04-05T08:42:10;5.97;;;3.72;;
77589;SDS011;66746;51.328;12.332;2023-04-05T08:44:42;4.65;;;3.88;;
77589;SDS011;66746;51.328;12.332;2023-04-05T08:47:10;5.70;;;4.38;;
77589;SDS011;66746;51.328;12.332;2023-04-05T08:49:42;7.35;;;3.63;;
77589;SDS011;66746;51.328;12.332;2023-04-05T08:52:09;4.30;;;3.85;;
77589;SDS011;66746;51.328;12.332;2023-04-05T08:54:35;5.63;;;4.80;;
77589;SDS011;66746;51.328;12.332;2023-04-05T08:57:02;4.05;;;3.65;;
77589;SDS011;66746;51.328;12.332;2023-04-05T08:59:29;5.20;;;4.70;;
77589;SDS011;66746;51.328;12.332;2023-04-05T09:01:55;7.00;;;4.35;;
77589;SDS011;66746;51.328;12.332;2023-04-05T09:04:23;5.93;;;4.47;;
77589;SDS011;66746;51.328;12.332;2023-04-05T09:06:54;5.35;;;4.03;;
77589;SDS011;66746;51.328;12.332;2023-04-05T09:09:24;5.65;;;4.65;;
77589;SDS011;66746;51.328;12.332;2023-04-05T09:11:50;5.30;;;4.28;;
77589;SDS011;66746;51.328;12.332;2023-04-05T09:14:17;6.57;;;4.53;;
77589;SDS011;66746;51.328;12.332;2023-04-05T09:16:45;3.95;;;2.78;;
77589;SDS011;66746;51.328;12.332;2023-04-05T09:19:11;6.70;;;4.30;;
77589;SDS011;66746;51.328;12.332;2023-04-05T09:21:57;7.57;;;4.57;;
77589;SDS011;66746;51.328;12.332;2023-04-05T09:24:32;4.85;;;3.22;;
77589;SDS011;66746;51.328;12.332;2023-04-05T09:27:03;4.78;;;4.22;;
77589;SDS011;66746;51.328;12.332;2023-04-05T09:29:30;7.93;;;4.70;;
77589;SDS011;66746;51.328;12.332;2023-04-05T09:31:59;7.28;;;5.55;;
77589;SDS011;66746;51.328;12.332;2023-04-05T09:34:25;6.28;;;5.18;;
77589;SDS011;66746;51.328;12.332;2023-04-05T09:36:52;7.47;;;3.55;;
77589;SDS011;66746;51.328;12.332;2023-04-05T09:39:20;4.95;;;4.45;;
77589;SDS011;66746;51.328;12.332;2023-04-05T09:42:03;3.97;;;3.45;;
77589;SDS011;66746;51.328;12.332;2023-04-05T09:47:15;4.38;;;3.97;;
77589;SDS011;66746;51.328;12.332;2023-04-05T09:49:42;4.55;;;4.15;;
77589;SDS011;66746;51.328;12.332;2023-04-05T09:52:16;5.13;;;4.43;;
77589;SDS011;66746;51.328;12.332;2023-04-05T09:54:47;3.92;;;3.53;;
77589;SDS011;66746;51.328;12.332;2023-04-05T09:57:14;3.97;;;2.67;;
77589;SDS011;66746;51.328;12.332;2023-04-05T09:59:41;4.40;;;4.00;;
77589;SDS011;66746;51.328;12.332;2023-04-05T10:02:09;3.97;;;3.58;;
77589;SDS011;66746;51.328;12.332;2023-04-05T10:04:39;7.68;;;4.68;;
77589;SDS011;66746;51.328;12.332;2023-04-05T10:07:06;5.07;;;4.68;;
77589;SDS011;66746;51.328;12.332;2023-04-05T10:09:33;4.38;;;3.72;;
77589;SDS011;66746;51.328;12.332;2023-04-05T10:12:02;4.30;;;3.90;;
77589;SDS011;66746;51.328;12.332;2023-04-05T10:14:29;4.55;;;3.70;;
77589;SDS011;66746;51.328;12.332;2023-04-05T10:16:58;3.83;;;3.45;;
77589;SDS011;66746;51.328;12.332;2023-04-05T10:19:31;4.10;;;3.70;;
77589;SDS011;66746;51.328;12.332;2023-04-05T10:22:06;5.45;;;4.32;;
77589;SDS011;66746;51.328;12.332;2023-04-05T10:24:43;4.60;;;3.17;;
77589;SDS011;66746;51.328;12.332;2023-04-05T10:27:17;4.47;;;3.05;;
77589;SDS011;66746;51.328;12.332;2023-04-05T10:29:49;4.47;;;3.78;;
77589;SDS011;66746;51.328;12.332;2023-04-05T10:32:21;5.20;;;3.53;;
77589;SDS011;66746;51.328;12.332;2023-04-05T10:34:56;5.22;;;3.63;;
77589;SDS011;66746;51.328;12.332;2023-04-05T10:37:34;4.55;;;4.15;;
77589;SDS011;66746;51.328;12.332;2023-04-05T10:40:06;5.07;;;2.92;;
77589;SDS011;66746;51.328;12.332;2023-04-05T10:42:36;3.95;;;3.65;;
77589;SDS011;66746;51.328;12.332;2023-04-05T10:45:07;4.38;;;3.92;;
77589;SDS011;66746;51.328;12.332;2023-04-05T10:47:37;5.88;;;4.60;;
77589;SDS011;66746;51.328;12.332;2023-04-05T10:50:11;4.22;;;3.50;;
77589;SDS011;66746;51.328;12.332;2023-04-05T10:52:42;3.88;;;3.55;;
77589;SDS011;66746;51.328;12.332;2023-04-05T10:55:10;3.88;;;3.13;;
77589;SDS011;66746;51.328;12.332;2023-04-05T10:57:38;3.97;;;3.58;;
77589;SDS011;66746;51.328;12.332;2023-04-05T11:00:06;4.35;;;3.83;;
77589;SDS011;66746;51.328;12.332;2023-04-05T11:02:35;4.50;;;2.80;;
77589;SDS011;66746;51.328;12.332;2023-04-05T11:05:02;4.35;;;4.05;;
77589;SDS011;66746;51.328;12.332;2023-04-05T11:07:33;4.32;;;2.55;;
77589;SDS011;66746;51.328;12.332;2023-04-05T11:10:08;4.38;;;3.05;;
77589;SDS011;66746;51.328;12.332;2023-04-05T11:15:36;3.58;;;3.28;;
77589;SDS011;66746;51.328;12.332;2023-04-05T11:18:04;5.38;;;2.97;;
77589;SDS011;66746;51.328;12.332;2023-04-05T11:20:41;4.10;;;3.60;;
77589;SDS011;66746;51.328;12.332;2023-04-05T11:23:10;3.78;;;3.10;;
77589;SDS011;66746;51.328;12.332;2023-04-05T11:25:38;4.60;;;4.20;;
77589;SDS011;66746;51.328;12.332;2023-04-05T11:28:05;2.65;;;2.22;;
77589;SDS011;66746;51.328;12.332;2023-04-05T11:30:49;3.35;;;3.05;;
77589;SDS011;66746;51.328;12.332;2023-04-05T11:33:34;3.28;;;2.53;;
77589;SDS011;66746;51.328;12.332;2023-04-05T11:36:01;4.60;;;4.18;;
77589;SDS011;66746;51.328;12.332;2023-04-05T11:38:28;4.32;;;3.92;;
77589;SDS011;66746;51.328;12.332;2023-04-05T11:41:04;4.55;;;3.97;;
77589;SDS011;66746;51.328;12.332;2023-04-05T11:43:31;3.83;;;3.45;;
77589;SDS011;66746;51.328;12.332;2023-04-05T11:46:00;4.15;;;3.75;;
77589;SDS011;66746;51.328;12.332;2023-04-05T11:48:27;4.30;;;3.60;;
77589;SDS011;66746;51.328;12.332;2023-04-05T11:50:54;4.32;;;3.92;;
77589;SDS011;66746;51.328;12.332;2023-04-05T11:53:22;6.03;;;3.63;;
77589;SDS011;66746;51.328;12.332;2023-04-05T11:55:49;4.68;;;3.88;;
77589;SDS011;66746;51.328;12.332;2023-04-05T11:58:16;3.63;;;3.13;;
77589;SDS011;66746;51.328;12.332;2023-04-05T12:00:44;4.25;;;3.85;;
77589;SDS011;66746;51.328;12.332;2023-04-05T12:03:13;4.40;;;3.75;;
77589;SDS011;66746;51.328;12.332;2023-04-05T12:05:45;6.22;;;4.00;;
77589;SDS011;66746;51.328;12.332;2023-04-05T12:08:13;5.30;;;3.55;;
77589;SDS011;66746;51.328;12.332;2023-04-05T12:10:39;4.18;;;2.53;;
77589;SDS011;66746;51.328;12.332;2023-04-05T12:13:05;3.55;;;3.25;;
77589;SDS011;66746;51.328;12.332;2023-04-05T12:15:34;4.97;;;4.43;;
77589;SDS011;66746;51.328;12.332;2023-04-05T12:18:02;4.00;;;2.40;;
77589;SDS011;66746;51.328;12.332;2023-04-05T12:20:33;6.03;;;3.60;;
77589;SDS011;66746;51.328;12.332;2023-04-05T12:23:00;4.60;;;4.20;;
77589;SDS011;66746;51.328;12.332;2023-04-05T12:25:28;4.82;;;4.50;;
77589;SDS011;66746;51.328;12.332;2023-04-05T12:27:55;6.05;;;4.18;;
77589;SDS011;66746;51.328;12.332;2023-04-05T12:30:22;4.47;;;4.07;;
77589;SDS011;66746;51.328;12.332;2023-04-05T12:33:06;6.40;;;4.20;;
77589;SDS011;66746;51.328;12.332;2023-04-05T12:35:34;5.10;;;4.68;;
77589;SDS011;66746;51.328;12.332;2023-04-05T12:38:01;4.50;;;4.07;;
77589;SDS011;66746;51.328;12.332;2023-04-05T12:40:28;5.10;;;4.05;;
77589;SDS011;66746;51.328;12.332;2023-04-05T12:42:59;4.05;;;3.67;;
77589;SDS011;66746;51.328;12.332;2023-04-05T12:45:26;5.20;;;4.68;;
77589;SDS011;66746;51.328;12.332;2023-04-05T12:47:55;4.15;;;2.60;;
77589;SDS011;66746;51.328;12.332;2023-04-05T12:50:24;4.25;;;3.85;;
77589;SDS011;66746;51.328;12.332;2023-04-05T12:52:53;5.38;;;4.55;;
77589;SDS011;66746;51.328;12.332;2023-04-05T12:55:21;4.03;;;3.72;;
77589;SDS011;66746;51.328;12.332;2023-04-05T12:57:48;5.22;;;4.25;;
77589;SDS011;66746;51.328;12.332;2023-04-05T13:00:22;5.72;;;4.72;;
77589;SDS011;66746;51.328;12.332;2023-04-05T13:03:05;7.38;;;3.85;;
77589;SDS011;66746;51.328;12.332;2023-04-05T13:05:41;4.55;;;3.17;;
77589;SDS011;66746;51.328;12.332;2023-04-05T13:08:09;4.47;;;4.10;;
77589;SDS011;66746;51.328;12.332;2023-04-05T13:10:35;4.63;;;4.10;;
77589;SDS011;66746;51.328;12.332;2023-04-05T13:13:02;8.05;;;2.67;;
77589;SDS011;66746;51.328;12.332;2023-04-05T13:15:28;6.35;;;4.45;;
77589;SDS011;66746;51.328;12.332;2023-04-05T13:17:55;5.32;;;4.45;;
77589;SDS011;66746;51.328;12.332;2023-04-05T13:20:21;4.45;;;4.05;;
77589;SDS011;66746;51.328;12.332;2023-04-05T13:22:48;4.75;;;4.32;;
77589;SDS011;66746;51.328;12.332;2023-04-05T13:25:16;3.70;;;3.40;;
77589;SDS011;66746;51.328;12.332;2023-04-05T13:27:43;5.03;;;4.53;;
77589;SDS011;66746;51.328;12.332;2023-04-05T13:30:09;7.05;;;5.03;;
77589;SDS011;66746;51.328;12.332;2023-04-05T13:32:37;4.43;;;4.00;;
77589;SDS011;66746;51.328;12.332;2023-04-05T13:35:03;5.40;;;4.90;;
77589;SDS011;66746;51.328;12.332;2023-04-05T13:37:30;7.80;;;4.55;;
77589;SDS011;66746;51.328;12.332;2023-04-05T13:39:57;5.85;;;5.32;;
77589;SDS011;66746;51.328;12.332;2023-04-05T13:42:25;4.65;;;4.25;;
77589;SDS011;66746;51.328;12.332;2023-04-05T13:44:51;3.95;;;3.65;;
77589;SDS011;66746;51.328;12.332;2023-04-05T13:47:18;4.35;;;3.95;;
77589;SDS011;66746;51.328;12.332;2023-04-05T13:49:44;5.05;;;4.60;;
77589;SDS011;66746;51.328;12.332;2023-04-05T13:52:11;4.25;;;3.88;;
77589;SDS011;66746;51.328;12.332;2023-04-05T13:54:37;5.70;;;4.57;;
77589;SDS011;66746;51.328;12.332;2023-04-05T13:57:04;5.55;;;4.05;;
77589;SDS011;66746;51.328;12.332;2023-04-05T13:59:32;3.58;;;2.90;;
77589;SDS011;66746;51.328;12.332;2023-04-05T14:01:58;4.30;;;3.90;;
77589;SDS011;66746;51.328;12.332;2023-04-05T14:04:25;5.80;;;5.30;;
77589;SDS011;66746;51.328;12.332;2023-04-05T14:06:52;5.07;;;3.67;;
77589;SDS011;66746;51.328;12.332;2023-04-05T14:09:19;4.63;;;4.22;;
77589;SDS011;66746;51.328;12.332;2023-04-05T14:11:45;6.93;;;4.72;;
77589;SDS011;66746;51.328;12.332;2023-04-05T14:14:12;4.13;;;3.65;;
77589;SDS011;66746;51.328;12.332;2023-04-05T14:16:39;5.35;;;4.95;;
77589;SDS011;66746;51.328;12.332;2023-04-05T14:19:06;5.68;;;5.22;;
77589;SDS011;66746;51.328;12.332;2023-04-05T14:21:35;4.32;;;3.92;;
77589;SDS011;66746;51.328;12.332;2023-04-05T14:24:01;6.05;;;4.93;;
77589;SDS011;66746;51.328;12.332;2023-04-05T14:26:28;4.78;;;4.38;;
77589;SDS011;66746;51.328;12.332;2023-04-05T14:28:54;5.32;;;4.70;;
77589;SDS011;66746;51.328;12.332;2023-04-05T14:31:21;3.88;;;3.47;;
77589;SDS011;66746;51.328;12.332;2023-04-05T14:33:49;6.38;;;3.85;;
77589;SDS011;66746;51.328;12.332;2023-04-05T14:36:16;3.85;;;3.10;;
77589;SDS011;66746;51.328;12.332;2023-04-05T14:39:10;5.43;;;4.93;;
77589;SDS011;66746;51.328;12.332;2023-04-05T14:41:37;4.65;;;4.10;;
77589;SDS011;66746;51.328;12.332;2023-04-05T14:44:04;3.80;;;3.10;;
77589;SDS011;66746;51.328;12.332;2023-04-05T14:46:31;4.93;;;4.45;;
77589;SDS011;66746;51.328;12.332;2023-04-05T14:48:58;4.57;;;3.88;;